createdAt,value
2018-11-23T00:00:25.752Z,1021.10
2018-11-23T00:01:25.656Z,1021.10
2018-11-23T00:02:25.621Z,1021.14
2018-11-23T00:03:25.595Z,1021.22
2018-11-23T00:04:25.560Z,1021.22
2018-11-23T00:05:25.778Z,1021.23
2018-11-23T00:06:25.495Z,1021.27
2018-11-23T00:07:25.449Z,1021.23
2018-11-23T00:08:25.413Z,1021.26
2018-11-23T00:09:25.373Z,1021.27
2018-11-23T00:10:26.279Z,1021.24
2018-11-23T00:11:25.306Z,1021.23
2018-11-23T00:12:26.223Z,1021.22
2018-11-23T00:13:25.238Z,1021.21
2018-11-23T00:14:25.239Z,1021.21
2018-11-23T00:15:25.203Z,1021.17
2018-11-23T00:16:25.128Z,1021.17
2018-11-23T00:17:25.097Z,1021.18
2018-11-23T00:18:25.065Z,1021.20
2018-11-23T00:19:25.735Z,1021.19
2018-11-23T00:20:25.054Z,1021.18
2018-11-23T00:21:24.957Z,1021.19
2018-11-23T00:22:24.931Z,1021.17
2018-11-23T00:23:24.884Z,1021.14
2018-11-23T00:24:24.854Z,1021.17
2018-11-23T00:25:24.866Z,1021.20
2018-11-23T00:26:24.780Z,1021.18
2018-11-23T00:27:24.747Z,1021.15
2018-11-23T00:28:24.761Z,1021.20
2018-11-23T00:29:25.227Z,1021.18
2018-11-23T00:30:24.642Z,1021.18
2018-11-23T00:31:24.648Z,1021.17
2018-11-23T00:32:24.566Z,1021.19
2018-11-23T00:33:24.586Z,1021.28
2018-11-23T00:34:24.515Z,1021.25
2018-11-23T00:35:24.466Z,1021.27
2018-11-23T00:36:24.477Z,1021.24
2018-11-23T00:37:24.397Z,1021.26
2018-11-23T00:38:24.360Z,1021.25
2018-11-23T00:39:25.228Z,1021.27
2018-11-23T00:40:25.230Z,1021.26
2018-11-23T00:41:24.787Z,1021.25
2018-11-23T00:42:24.730Z,1021.27
2018-11-23T00:43:24.186Z,1021.22
2018-11-23T00:44:24.152Z,1021.23
2018-11-23T00:45:24.280Z,1021.23
2018-11-23T00:46:24.123Z,1021.26
2018-11-23T00:47:24.050Z,1021.21
2018-11-23T00:48:24.012Z,1021.24
2018-11-23T00:49:23.980Z,1021.25
2018-11-23T00:50:24.733Z,1021.24
2018-11-23T00:51:23.965Z,1021.22
2018-11-23T00:52:23.877Z,1021.18
2018-11-23T00:53:23.843Z,1021.21
2018-11-23T00:54:23.805Z,1021.19
2018-11-23T00:55:23.843Z,1021.21
2018-11-23T00:56:23.783Z,1021.20
2018-11-23T00:57:23.709Z,1021.20
2018-11-23T00:58:24.229Z,1021.17
2018-11-23T00:59:24.234Z,1021.19
2018-11-23T01:00:23.663Z,1021.21
2018-11-23T01:01:23.615Z,1021.16
2018-11-23T01:02:24.245Z,1021.18
2018-11-23T01:03:23.490Z,1021.16
2018-11-23T01:04:24.136Z,1021.14
2018-11-23T01:05:23.551Z,1021.14
2018-11-23T01:06:23.786Z,1021.17
2018-11-23T01:07:23.360Z,1021.14
2018-11-23T01:08:23.356Z,1021.14
2018-11-23T01:09:24.229Z,1021.12
2018-11-23T01:10:24.229Z,1021.16
2018-11-23T01:11:23.731Z,1021.12
2018-11-23T01:12:23.729Z,1021.14
2018-11-23T01:13:23.302Z,1021.13
2018-11-23T01:14:23.734Z,1021.12
2018-11-23T01:15:23.731Z,1021.12
2018-11-23T01:16:23.086Z,1021.09
2018-11-23T01:17:23.728Z,1021.05
2018-11-23T01:18:23.287Z,1021.08
2018-11-23T01:19:22.938Z,1021.05
2018-11-23T01:20:22.902Z,1021.04
2018-11-23T01:21:22.865Z,1021.05
2018-11-23T01:22:23.301Z,1021.00
2018-11-23T01:23:22.794Z,1021.05
2018-11-23T01:24:22.755Z,1021.02
2018-11-23T01:25:22.725Z,1021.03
2018-11-23T01:26:23.236Z,1021.04
2018-11-23T01:27:22.711Z,1021.03
2018-11-23T01:28:23.232Z,1021.04
2018-11-23T01:29:22.584Z,1021.06
2018-11-23T01:30:23.229Z,1021.02
2018-11-23T01:31:23.242Z,1021.05
2018-11-23T01:32:22.530Z,1020.99
2018-11-23T01:33:22.480Z,1021.02
2018-11-23T01:34:22.414Z,1020.99
2018-11-23T01:35:22.372Z,1020.99
2018-11-23T01:36:22.382Z,1020.96
2018-11-23T01:37:23.231Z,1020.94
2018-11-23T01:38:22.785Z,1020.98
2018-11-23T01:39:22.740Z,1020.93
2018-11-23T01:40:22.297Z,1020.94
2018-11-23T01:41:22.162Z,1020.91
2018-11-23T01:42:22.130Z,1020.90
2018-11-23T01:43:22.136Z,1020.87
2018-11-23T01:44:22.731Z,1020.84
2018-11-23T01:45:22.034Z,1020.85
2018-11-23T01:46:22.728Z,1020.83
2018-11-23T01:47:22.735Z,1020.81
2018-11-23T01:48:21.972Z,1020.82
2018-11-23T01:49:21.885Z,1020.80
2018-11-23T01:50:21.898Z,1020.83
2018-11-23T01:51:21.822Z,1020.82
2018-11-23T01:52:22.734Z,1020.83
2018-11-23T01:53:22.732Z,1020.81
2018-11-23T01:54:21.790Z,1020.78
2018-11-23T01:55:21.686Z,1020.80
2018-11-23T01:56:21.641Z,1020.74
2018-11-23T01:57:22.240Z,1020.77
2018-11-23T01:58:21.580Z,1020.75
2018-11-23T01:59:21.594Z,1020.75
2018-11-23T02:00:21.500Z,1020.76
2018-11-23T02:01:21.470Z,1020.76
2018-11-23T02:02:21.652Z,1020.73
2018-11-23T02:03:22.236Z,1020.77
2018-11-23T02:04:21.793Z,1020.76
2018-11-23T02:05:21.377Z,1020.77
2018-11-23T02:06:21.291Z,1020.77
2018-11-23T02:07:22.231Z,1020.70
2018-11-23T02:08:21.729Z,1020.70
2018-11-23T02:09:21.739Z,1020.69
2018-11-23T02:10:21.196Z,1020.68
2018-11-23T02:11:21.118Z,1020.64
2018-11-23T02:12:21.751Z,1020.61
2018-11-23T02:13:21.051Z,1020.61
2018-11-23T02:14:21.737Z,1020.65
2018-11-23T02:15:21.029Z,1020.65
2018-11-23T02:16:20.950Z,1020.64
2018-11-23T02:17:20.914Z,1020.65
2018-11-23T02:18:20.871Z,1020.65
2018-11-23T02:19:21.735Z,1020.72
2018-11-23T02:20:20.847Z,1020.62
2018-11-23T02:21:20.788Z,1020.67
2018-11-23T02:22:21.249Z,1020.60
2018-11-23T02:23:20.698Z,1020.64
2018-11-23T02:24:20.668Z,1020.59
2018-11-23T02:25:20.680Z,1020.56
2018-11-23T02:26:20.592Z,1020.55
2018-11-23T02:27:20.559Z,1020.56
2018-11-23T02:28:20.529Z,1020.56
2018-11-23T02:29:21.234Z,1020.57
2018-11-23T02:30:20.526Z,1020.59
2018-11-23T02:31:20.422Z,1020.55
2018-11-23T02:32:20.423Z,1020.52
2018-11-23T02:33:21.274Z,1020.55
2018-11-23T02:34:20.321Z,1020.54
2018-11-23T02:35:20.813Z,1020.55
2018-11-23T02:36:20.341Z,1020.55
2018-11-23T02:37:20.738Z,1020.57
2018-11-23T02:38:20.177Z,1020.58
2018-11-23T02:39:20.138Z,1020.58
2018-11-23T02:40:20.150Z,1020.56
2018-11-23T02:41:20.071Z,1020.51
2018-11-23T02:42:20.037Z,1020.53
2018-11-23T02:43:20.054Z,1020.58
2018-11-23T02:44:20.740Z,1020.55
2018-11-23T02:45:19.953Z,1020.56
2018-11-23T02:46:19.900Z,1020.58
2018-11-23T02:47:19.903Z,1020.57
2018-11-23T02:48:19.832Z,1020.56
2018-11-23T02:49:19.790Z,1020.58
2018-11-23T02:50:19.764Z,1020.54
2018-11-23T02:51:19.727Z,1020.57
2018-11-23T02:52:19.732Z,1020.57
2018-11-23T02:53:19.655Z,1020.53
2018-11-23T02:54:19.614Z,1020.51
2018-11-23T02:55:19.587Z,1020.48
2018-11-23T02:56:19.550Z,1020.49
2018-11-23T02:57:19.575Z,1020.45
2018-11-23T02:58:19.515Z,1020.47
2018-11-23T02:59:23.784Z,1020.47
2018-11-23T03:00:19.408Z,1020.46
2018-11-23T03:01:19.374Z,1020.44
2018-11-23T03:02:19.340Z,1020.45
2018-11-23T03:03:19.347Z,1020.42
2018-11-23T03:04:19.270Z,1020.40
2018-11-23T03:05:19.238Z,1020.38
2018-11-23T03:06:19.200Z,1020.36
2018-11-23T03:07:19.755Z,1020.35
2018-11-23T03:08:19.168Z,1020.36
2018-11-23T03:09:19.739Z,1020.37
2018-11-23T03:10:19.064Z,1020.35
2018-11-23T03:11:19.741Z,1020.36
2018-11-23T03:12:19.738Z,1020.40
2018-11-23T03:13:19.011Z,1020.39
2018-11-23T03:14:18.919Z,1020.37
2018-11-23T03:15:18.882Z,1020.39
2018-11-23T03:16:18.864Z,1020.41
2018-11-23T03:17:18.821Z,1020.38
2018-11-23T03:18:19.296Z,1020.36
2018-11-23T03:19:18.757Z,1020.37
2018-11-23T03:20:18.722Z,1020.35
2018-11-23T03:21:18.684Z,1020.35
2018-11-23T03:22:18.641Z,1020.38
2018-11-23T03:23:18.648Z,1020.39
2018-11-23T03:24:18.574Z,1020.44
2018-11-23T03:25:18.804Z,1020.43
2018-11-23T03:26:19.243Z,1020.42
2018-11-23T03:27:18.465Z,1020.41
2018-11-23T03:28:18.431Z,1020.41
2018-11-23T03:29:18.408Z,1020.42
2018-11-23T03:30:18.408Z,1020.37
2018-11-23T03:31:18.401Z,1020.34
2018-11-23T03:32:19.243Z,1020.35
2018-11-23T03:33:18.263Z,1020.39
2018-11-23T03:34:18.224Z,1020.38
2018-11-23T03:35:18.192Z,1020.39
2018-11-23T03:36:18.212Z,1020.33
2018-11-23T03:37:18.116Z,1020.33
2018-11-23T03:38:18.087Z,1020.29
2018-11-23T03:39:18.051Z,1020.33
2018-11-23T03:40:18.742Z,1020.31
2018-11-23T03:41:18.020Z,1020.29
2018-11-23T03:42:17.947Z,1020.27
2018-11-23T03:43:17.905Z,1020.29
2018-11-23T03:44:17.871Z,1020.23
2018-11-23T03:45:17.893Z,1020.26
2018-11-23T03:46:17.805Z,1020.27
2018-11-23T03:47:18.740Z,1020.23
2018-11-23T03:48:18.251Z,1020.26
2018-11-23T03:49:17.700Z,1020.22
2018-11-23T03:50:17.731Z,1020.20
2018-11-23T03:51:17.629Z,1020.23
2018-11-23T03:52:17.594Z,1020.24
2018-11-23T03:53:17.560Z,1020.27
2018-11-23T03:54:17.525Z,1020.23
2018-11-23T03:55:17.797Z,1020.26
2018-11-23T03:56:17.454Z,1020.29
2018-11-23T03:57:17.423Z,1020.27
2018-11-23T03:58:17.805Z,1020.30
2018-11-23T03:59:17.352Z,1020.27
2018-11-23T04:00:18.251Z,1020.29
2018-11-23T04:01:17.292Z,1020.25
2018-11-23T04:02:17.310Z,1020.23
2018-11-23T04:03:17.208Z,1020.26
2018-11-23T04:04:17.753Z,1020.23
2018-11-23T04:05:17.745Z,1020.26
2018-11-23T04:06:17.106Z,1020.19
2018-11-23T04:07:17.146Z,1020.18
2018-11-23T04:08:17.036Z,1020.18
2018-11-23T04:09:17.022Z,1020.19
2018-11-23T04:10:17.744Z,1020.19
2018-11-23T04:11:16.933Z,1020.20
2018-11-23T04:12:16.960Z,1020.20
2018-11-23T04:13:17.753Z,1020.19
2018-11-23T04:14:16.828Z,1020.21
2018-11-23T04:15:16.799Z,1020.23
2018-11-23T04:16:16.766Z,1020.20
2018-11-23T04:17:16.795Z,1020.27
2018-11-23T04:18:16.744Z,1020.21
2018-11-23T04:19:16.657Z,1020.21
2018-11-23T04:20:17.247Z,1020.28
2018-11-23T04:21:16.587Z,1020.25
2018-11-23T04:22:16.559Z,1020.26
2018-11-23T04:23:16.569Z,1020.26
2018-11-23T04:24:17.253Z,1020.33
2018-11-23T04:25:16.456Z,1020.26
2018-11-23T04:26:16.442Z,1020.25
2018-11-23T04:27:16.391Z,1020.23
2018-11-23T04:28:16.398Z,1020.22
2018-11-23T04:29:16.363Z,1020.21
2018-11-23T04:30:16.280Z,1020.20
2018-11-23T04:31:16.746Z,1020.21
2018-11-23T04:32:16.211Z,1020.22
2018-11-23T04:33:16.748Z,1020.19
2018-11-23T04:34:16.297Z,1020.23
2018-11-23T04:35:16.100Z,1020.18
2018-11-23T04:36:16.752Z,1020.17
2018-11-23T04:37:16.748Z,1020.20
2018-11-23T04:38:16.004Z,1020.21
2018-11-23T04:39:16.008Z,1020.21
2018-11-23T04:40:16.752Z,1020.19
2018-11-23T04:41:16.753Z,1020.23
2018-11-23T04:42:15.861Z,1020.23
2018-11-23T04:43:16.301Z,1020.20
2018-11-23T04:44:15.836Z,1020.19
2018-11-23T04:45:15.762Z,1020.18
2018-11-23T04:46:16.261Z,1020.21
2018-11-23T04:47:16.246Z,1020.19
2018-11-23T04:48:16.246Z,1020.19
2018-11-23T04:49:15.677Z,1020.17
2018-11-23T04:50:15.583Z,1020.16
2018-11-23T04:51:16.247Z,1020.19
2018-11-23T04:52:16.263Z,1020.17
2018-11-23T04:53:16.246Z,1020.12
2018-11-23T04:54:15.794Z,1020.17
2018-11-23T04:55:15.827Z,1020.18
2018-11-23T04:56:16.259Z,1020.15
2018-11-23T04:57:15.384Z,1020.16
2018-11-23T04:58:15.303Z,1020.16
2018-11-23T04:59:16.247Z,1020.18
2018-11-23T05:00:15.281Z,1020.14
2018-11-23T05:01:15.207Z,1020.17
2018-11-23T05:02:15.165Z,1020.15
2018-11-23T05:03:15.765Z,1020.17
2018-11-23T05:04:15.749Z,1020.11
2018-11-23T05:05:15.304Z,1020.10
2018-11-23T05:06:15.042Z,1020.13
2018-11-23T05:07:14.999Z,1020.12
2018-11-23T05:08:14.956Z,1020.12
2018-11-23T05:09:14.925Z,1020.19
2018-11-23T05:10:15.305Z,1020.17
2018-11-23T05:11:14.861Z,1020.14
2018-11-23T05:12:15.750Z,1020.14
2018-11-23T05:13:15.750Z,1020.16
2018-11-23T05:14:14.755Z,1020.14
2018-11-23T05:15:14.766Z,1020.13
2018-11-23T05:16:14.687Z,1020.17
2018-11-23T05:17:15.211Z,1020.21
2018-11-23T05:18:14.655Z,1020.14
2018-11-23T05:19:14.579Z,1020.18
2018-11-23T05:20:14.798Z,1020.22
2018-11-23T05:21:15.252Z,1020.17
2018-11-23T05:22:15.250Z,1020.18
2018-11-23T05:23:14.485Z,1020.14
2018-11-23T05:24:15.258Z,1020.19
2018-11-23T05:25:15.249Z,1020.16
2018-11-23T05:26:15.255Z,1020.20
2018-11-23T05:27:15.250Z,1020.18
2018-11-23T05:28:14.311Z,1020.21
2018-11-23T05:29:14.230Z,1020.19
2018-11-23T05:30:14.194Z,1020.19
2018-11-23T05:31:14.163Z,1020.20
2018-11-23T05:32:14.145Z,1020.18
2018-11-23T05:33:14.241Z,1020.18
2018-11-23T05:34:14.054Z,1020.18
2018-11-23T05:35:14.032Z,1020.17
2018-11-23T05:36:13.991Z,1020.17
2018-11-23T05:37:13.951Z,1020.18
2018-11-23T05:38:13.964Z,1020.19
2018-11-23T05:39:13.885Z,1020.14
2018-11-23T05:40:13.847Z,1020.16
2018-11-23T05:41:14.752Z,1020.16
2018-11-23T05:42:14.752Z,1020.14
2018-11-23T05:43:13.867Z,1020.10
2018-11-23T05:44:13.708Z,1020.12
2018-11-23T05:45:13.816Z,1020.10
2018-11-23T05:46:14.255Z,1020.08
2018-11-23T05:47:13.606Z,1020.11
2018-11-23T05:48:13.571Z,1020.08
2018-11-23T05:49:13.543Z,1020.09
2018-11-23T05:50:13.552Z,1020.11
2018-11-23T05:51:14.257Z,1020.04
2018-11-23T05:52:13.436Z,1020.09
2018-11-23T05:53:13.396Z,1020.10
2018-11-23T05:54:13.366Z,1020.06
2018-11-23T05:55:13.385Z,1020.08
2018-11-23T05:56:13.293Z,1020.08
2018-11-23T05:57:13.261Z,1020.07
2018-11-23T05:58:13.265Z,1020.03
2018-11-23T05:59:13.187Z,1020.04
2018-11-23T06:00:13.331Z,1020.07
2018-11-23T06:01:13.170Z,1020.04
2018-11-23T06:02:13.084Z,1020.06
2018-11-23T06:03:13.063Z,1020.02
2018-11-23T06:04:13.763Z,1020.05
2018-11-23T06:05:12.984Z,1020.03
2018-11-23T06:06:13.325Z,1020.04
2018-11-23T06:07:12.919Z,1020.04
2018-11-23T06:08:12.884Z,1020.04
2018-11-23T06:09:12.841Z,1020.07
2018-11-23T06:10:12.803Z,1020.03
2018-11-23T06:11:12.817Z,1020.06
2018-11-23T06:12:13.261Z,1020.06
2018-11-23T06:13:12.713Z,1020.03
2018-11-23T06:14:13.266Z,1020.05
2018-11-23T06:15:13.282Z,1020.02
2018-11-23T06:16:12.657Z,1020.02
2018-11-23T06:17:12.570Z,1020.02
2018-11-23T06:18:12.541Z,1020.01
2018-11-23T06:19:12.492Z,1020.00
2018-11-23T06:20:12.459Z,1020.02
2018-11-23T06:21:12.812Z,1020.03
2018-11-23T06:22:12.808Z,1020.03
2018-11-23T06:23:12.359Z,1019.99
2018-11-23T06:24:12.322Z,1020.02
2018-11-23T06:25:13.259Z,1020.01
2018-11-23T06:26:12.248Z,1020.01
2018-11-23T06:27:12.254Z,1020.02
2018-11-23T06:28:12.223Z,1020.01
2018-11-23T06:29:12.149Z,1020.02
2018-11-23T06:30:12.110Z,1020.02
2018-11-23T06:31:12.075Z,1020.00
2018-11-23T06:32:12.044Z,1019.98
2018-11-23T06:33:12.058Z,1020.02
2018-11-23T06:34:11.974Z,1020.03
2018-11-23T06:35:11.940Z,1020.01
2018-11-23T06:36:11.908Z,1020.01
2018-11-23T06:37:12.753Z,1020.01
2018-11-23T06:38:11.879Z,1019.93
2018-11-23T06:39:12.754Z,1019.97
2018-11-23T06:40:12.755Z,1019.98
2018-11-23T06:41:11.746Z,1020.01
2018-11-23T06:42:11.698Z,1019.98
2018-11-23T06:43:11.711Z,1020.03
2018-11-23T06:44:11.647Z,1020.02
2018-11-23T06:45:11.595Z,1020.03
2018-11-23T06:46:11.560Z,1020.01
2018-11-23T06:47:11.530Z,1020.06
2018-11-23T06:48:11.539Z,1020.01
2018-11-23T06:49:11.516Z,1020.02
2018-11-23T06:50:14.260Z,1020.04
2018-11-23T06:51:11.383Z,1020.05
2018-11-23T06:52:11.384Z,1020.09
2018-11-23T06:53:11.317Z,1020.04
2018-11-23T06:54:14.555Z,1020.08
2018-11-23T06:55:11.306Z,1020.10
2018-11-23T06:56:11.757Z,1020.08
2018-11-23T06:57:11.193Z,1020.05
2018-11-23T06:58:11.169Z,1020.08
2018-11-23T06:59:11.111Z,1020.04
2018-11-23T07:00:11.132Z,1020.07
2018-11-23T07:01:11.046Z,1020.05
2018-11-23T07:02:11.006Z,1020.08
2018-11-23T07:03:10.978Z,1020.08
2018-11-23T07:04:10.941Z,1020.07
2018-11-23T07:05:10.951Z,1020.07
2018-11-23T07:06:11.775Z,1020.07
2018-11-23T07:07:10.880Z,1020.04
2018-11-23T07:08:10.797Z,1020.07
2018-11-23T07:09:11.756Z,1020.06
2018-11-23T07:10:11.316Z,1020.08
2018-11-23T07:11:10.752Z,1020.09
2018-11-23T07:12:10.667Z,1020.07
2018-11-23T07:13:11.264Z,1020.11
2018-11-23T07:14:10.591Z,1020.11
2018-11-23T07:15:11.266Z,1020.07
2018-11-23T07:16:10.817Z,1020.13
2018-11-23T07:17:11.267Z,1020.10
2018-11-23T07:18:10.498Z,1020.10
2018-11-23T07:19:10.423Z,1020.08
2018-11-23T07:20:10.388Z,1020.10
2018-11-23T07:21:10.352Z,1020.09
2018-11-23T07:22:10.321Z,1020.09
2018-11-23T07:23:10.330Z,1020.09
2018-11-23T07:24:10.252Z,1020.10
2018-11-23T07:25:10.220Z,1020.07
2018-11-23T07:26:10.181Z,1020.13
2018-11-23T07:27:10.147Z,1020.16
2018-11-23T07:28:15.445Z,1020.12
2018-11-23T07:29:10.097Z,1020.15
2018-11-23T07:30:10.809Z,1020.17
2018-11-23T07:31:10.013Z,1020.13
2018-11-23T07:32:09.977Z,1020.14
2018-11-23T07:33:10.811Z,1020.11
2018-11-23T07:34:09.955Z,1020.12
2018-11-23T07:35:09.879Z,1020.11
2018-11-23T07:36:09.848Z,1020.09
2018-11-23T07:37:09.806Z,1020.06
2018-11-23T07:38:09.808Z,1020.06
2018-11-23T07:39:09.800Z,1020.03
2018-11-23T07:40:09.705Z,1020.06
2018-11-23T07:41:09.669Z,1020.05
2018-11-23T07:42:09.634Z,1020.04
2018-11-23T07:43:09.604Z,1020.07
2018-11-23T07:44:09.613Z,1020.03
2018-11-23T07:45:09.532Z,1020.04
2018-11-23T07:46:09.497Z,1020.03
2018-11-23T07:47:09.468Z,1020.01
2018-11-23T07:48:09.432Z,1020.03
2018-11-23T07:49:09.430Z,1020.05
2018-11-23T07:50:09.423Z,1020.02
2018-11-23T07:51:09.325Z,1020.01
2018-11-23T07:52:09.290Z,1020.00
2018-11-23T07:53:09.277Z,1020.03
2018-11-23T07:54:09.305Z,1019.97
2018-11-23T07:55:09.234Z,1020.01
2018-11-23T07:56:09.161Z,1019.96
2018-11-23T07:57:09.131Z,1019.98
2018-11-23T07:58:09.085Z,1019.96
2018-11-23T07:59:09.060Z,1019.99
2018-11-23T08:00:09.315Z,1019.98
2018-11-23T08:01:09.027Z,1019.98
2018-11-23T08:02:08.948Z,1020.02
2018-11-23T08:03:08.922Z,1019.97
2018-11-23T08:04:08.883Z,1020.01
2018-11-23T08:05:09.760Z,1019.99
2018-11-23T08:06:08.915Z,1020.02
2018-11-23T08:07:08.781Z,1019.97
2018-11-23T08:08:08.760Z,1019.97
2018-11-23T08:09:08.709Z,1020.00
2018-11-23T08:10:08.681Z,1019.97
2018-11-23T08:11:08.815Z,1019.95
2018-11-23T08:12:09.263Z,1019.97
2018-11-23T08:13:08.572Z,1019.93
2018-11-23T08:14:08.559Z,1019.93
2018-11-23T08:15:08.508Z,1019.97
2018-11-23T08:16:08.526Z,1019.93
2018-11-23T08:17:08.472Z,1019.93
2018-11-23T08:18:08.406Z,1019.96
2018-11-23T08:19:08.373Z,1019.92
2018-11-23T08:20:08.336Z,1019.94
2018-11-23T08:21:08.344Z,1019.93
2018-11-23T08:22:08.266Z,1019.91
2018-11-23T08:23:08.324Z,1019.91
2018-11-23T08:24:08.196Z,1019.90
2018-11-23T08:25:08.165Z,1019.89
2018-11-23T08:26:08.174Z,1019.91
2018-11-23T08:27:08.094Z,1019.90
2018-11-23T08:28:08.058Z,1019.87
2018-11-23T08:29:08.025Z,1019.90
2018-11-23T08:30:07.997Z,1019.92
2018-11-23T08:31:08.763Z,1019.92
2018-11-23T08:32:08.333Z,1019.92
2018-11-23T08:33:07.892Z,1019.92
2018-11-23T08:34:07.861Z,1019.94
2018-11-23T08:35:07.823Z,1019.94
2018-11-23T08:36:07.833Z,1019.94
2018-11-23T08:37:07.752Z,1019.95
2018-11-23T08:38:07.765Z,1019.93
2018-11-23T08:39:08.272Z,1019.92
2018-11-23T08:40:07.656Z,1019.83
2018-11-23T08:41:07.625Z,1019.86
2018-11-23T08:42:07.592Z,1019.89
2018-11-23T08:43:07.827Z,1019.87
2018-11-23T08:44:07.517Z,1019.85
2018-11-23T08:45:08.266Z,1019.86
2018-11-23T08:46:07.448Z,1019.87
2018-11-23T08:47:08.312Z,1019.89
2018-11-23T08:48:07.433Z,1019.90
2018-11-23T08:49:07.363Z,1019.93
2018-11-23T08:50:07.317Z,1019.91
2018-11-23T08:51:07.302Z,1019.90
2018-11-23T08:52:07.287Z,1019.93
2018-11-23T08:53:07.213Z,1019.90
2018-11-23T08:54:07.184Z,1019.91
2018-11-23T08:55:07.208Z,1019.93
2018-11-23T08:56:07.111Z,1019.94
2018-11-23T08:57:07.079Z,1019.96
2018-11-23T08:58:07.043Z,1019.88
2018-11-23T08:59:07.008Z,1019.90
2018-11-23T09:00:07.021Z,1019.91
2018-11-23T09:01:06.961Z,1019.90
2018-11-23T09:02:06.948Z,1019.87
2018-11-23T09:03:06.872Z,1019.87
2018-11-23T09:04:06.888Z,1019.88
2018-11-23T09:05:06.811Z,1019.86
2018-11-23T09:06:06.819Z,1019.87
2018-11-23T09:07:06.740Z,1019.84
2018-11-23T09:08:06.713Z,1019.84
2018-11-23T09:09:06.674Z,1019.83
2018-11-23T09:10:06.652Z,1019.82
2018-11-23T09:11:06.647Z,1019.85
2018-11-23T09:12:06.582Z,1019.84
2018-11-23T09:13:06.536Z,1019.84
2018-11-23T09:14:06.555Z,1019.85
2018-11-23T09:15:06.468Z,1019.85
2018-11-23T09:16:06.472Z,1019.83
2018-11-23T09:17:06.404Z,1019.89
2018-11-23T09:18:06.408Z,1019.89
2018-11-23T09:19:06.333Z,1019.90
2018-11-23T09:20:06.296Z,1019.90
2018-11-23T09:21:06.305Z,1019.89
2018-11-23T09:22:06.292Z,1019.86
2018-11-23T09:23:06.199Z,1019.85
2018-11-23T09:24:06.166Z,1019.84
2018-11-23T09:25:06.127Z,1019.85
2018-11-23T09:26:06.097Z,1019.87
2018-11-23T09:27:06.321Z,1019.88
2018-11-23T09:28:06.068Z,1019.92
2018-11-23T09:29:05.992Z,1019.85
2018-11-23T09:30:05.960Z,1019.86
2018-11-23T09:31:05.963Z,1019.88
2018-11-23T09:32:05.890Z,1019.85
2018-11-23T09:33:05.906Z,1019.84
2018-11-23T09:34:05.835Z,1019.85
2018-11-23T09:35:05.792Z,1019.82
2018-11-23T09:36:05.801Z,1019.81
2018-11-23T09:37:05.725Z,1019.81
2018-11-23T09:38:05.746Z,1019.78
2018-11-23T09:39:05.664Z,1019.79
2018-11-23T09:40:05.633Z,1019.77
2018-11-23T09:41:05.589Z,1019.77
2018-11-23T09:42:05.555Z,1019.73
2018-11-23T09:43:05.564Z,1019.75
2018-11-23T09:44:05.493Z,1019.74
2018-11-23T09:45:05.456Z,1019.74
2018-11-23T09:46:05.427Z,1019.74
2018-11-23T09:47:09.941Z,1019.72
2018-11-23T09:48:05.356Z,1019.67
2018-11-23T09:49:05.321Z,1019.71
2018-11-23T09:50:05.295Z,1019.68
2018-11-23T09:51:05.289Z,1019.70
2018-11-23T09:52:05.217Z,1019.63
2018-11-23T09:53:05.204Z,1019.68
2018-11-23T09:54:05.196Z,1019.65
2018-11-23T09:55:05.117Z,1019.67
2018-11-23T09:56:05.084Z,1019.63
2018-11-23T09:57:05.054Z,1019.64
2018-11-23T09:58:05.025Z,1019.66
2018-11-23T09:59:05.032Z,1019.62
2018-11-23T10:00:04.944Z,1019.68
2018-11-23T10:02:04.888Z,1019.56
2018-11-23T10:03:04.872Z,1019.63
2018-11-23T10:04:04.811Z,1019.64
2018-11-23T10:05:04.819Z,1019.61
2018-11-23T10:06:04.831Z,1019.62
2018-11-23T10:07:04.713Z,1019.58
2018-11-23T10:08:04.683Z,1019.59
2018-11-23T10:09:05.269Z,1019.52
2018-11-23T10:10:04.612Z,1019.51
2018-11-23T10:11:04.855Z,1019.51
2018-11-23T10:12:04.553Z,1019.49
2018-11-23T10:13:04.510Z,1019.47
2018-11-23T10:14:04.477Z,1019.47
2018-11-23T10:15:04.442Z,1019.48
2018-11-23T10:16:04.497Z,1019.45
2018-11-23T10:17:04.378Z,1019.48
2018-11-23T10:18:04.347Z,1019.48
2018-11-23T10:19:04.306Z,1019.47
2018-11-23T10:20:04.277Z,1019.48
2018-11-23T10:21:04.313Z,1019.44
2018-11-23T10:22:04.218Z,1019.43
2018-11-23T10:23:04.177Z,1019.46
2018-11-23T10:24:04.139Z,1019.41
2018-11-23T10:25:04.122Z,1019.40
2018-11-23T10:26:04.116Z,1019.45
2018-11-23T10:27:04.069Z,1019.43
2018-11-23T10:28:04.059Z,1019.44
2018-11-23T10:29:03.974Z,1019.44
2018-11-23T10:30:03.939Z,1019.50
2018-11-23T10:31:04.016Z,1019.49
2018-11-23T10:32:03.908Z,1019.48
2018-11-23T10:33:03.885Z,1019.44
2018-11-23T10:34:03.807Z,1019.45
2018-11-23T10:35:03.778Z,1019.45
2018-11-23T10:36:03.790Z,1019.48
2018-11-23T10:37:03.728Z,1019.43
2018-11-23T10:38:03.755Z,1019.47
2018-11-23T10:39:03.652Z,1019.47
2018-11-23T10:40:03.613Z,1019.43
2018-11-23T10:41:03.629Z,1019.43
2018-11-23T10:42:03.540Z,1019.42
2018-11-23T10:43:03.514Z,1019.42
2018-11-23T10:44:03.523Z,1019.46
2018-11-23T10:45:03.442Z,1019.41
2018-11-23T10:46:03.470Z,1019.38
2018-11-23T10:47:03.386Z,1019.36
2018-11-23T10:48:03.352Z,1019.37
2018-11-23T10:49:03.319Z,1019.33
2018-11-23T10:50:03.277Z,1019.31
2018-11-23T10:51:03.306Z,1019.32
2018-11-23T10:52:03.229Z,1019.32
2018-11-23T10:53:03.223Z,1019.29
2018-11-23T10:54:03.149Z,1019.30
2018-11-23T10:55:03.115Z,1019.26
2018-11-23T10:56:03.081Z,1019.22
2018-11-23T10:57:03.174Z,1019.22
2018-11-23T10:58:03.011Z,1019.25
2018-11-23T10:59:02.985Z,1019.22
2018-11-23T11:00:02.960Z,1019.20
2018-11-23T11:01:02.951Z,1019.21
2018-11-23T11:02:02.940Z,1019.18
2018-11-23T11:03:02.848Z,1019.19
2018-11-23T11:04:02.815Z,1019.20
2018-11-23T11:05:02.791Z,1019.20
2018-11-23T11:06:02.758Z,1019.19
2018-11-23T11:07:02.826Z,1019.16
2018-11-23T11:08:02.732Z,1019.16
2018-11-23T11:09:02.667Z,1019.14
2018-11-23T11:10:02.632Z,1019.12
2018-11-23T11:11:02.582Z,1019.15
2018-11-23T11:12:02.608Z,1019.13
2018-11-23T11:13:02.622Z,1019.14
2018-11-23T11:14:02.492Z,1019.14
2018-11-23T11:15:04.190Z,1019.18
2018-11-23T11:16:03.299Z,1019.12
2018-11-23T11:17:02.449Z,1019.10
2018-11-23T11:18:03.290Z,1019.06
2018-11-23T11:19:02.321Z,1019.03
2018-11-23T11:20:02.297Z,1019.00
2018-11-23T11:21:02.255Z,1019.02
2018-11-23T11:22:02.292Z,1019.02
2018-11-23T11:23:02.239Z,1019.02
2018-11-23T11:24:02.182Z,1019.01
2018-11-23T11:25:02.126Z,1019.02
2018-11-23T11:26:02.133Z,1019.03
2018-11-23T11:27:02.058Z,1019.01
2018-11-23T11:28:02.789Z,1018.98
2018-11-23T11:29:02.025Z,1018.98
2018-11-23T11:30:02.006Z,1018.95
2018-11-23T11:31:01.938Z,1018.95
2018-11-23T11:32:01.895Z,1018.97
2018-11-23T11:33:01.919Z,1018.93
2018-11-23T11:34:01.829Z,1018.94
2018-11-23T11:35:01.797Z,1018.87
2018-11-23T11:36:01.769Z,1018.88
2018-11-23T11:37:01.735Z,1018.86
2018-11-23T11:38:01.766Z,1018.89
2018-11-23T11:39:01.707Z,1018.87
2018-11-23T11:40:01.653Z,1018.80
2018-11-23T11:41:01.605Z,1018.79
2018-11-23T11:42:01.571Z,1018.75
2018-11-23T11:43:01.579Z,1018.80
2018-11-23T11:44:01.513Z,1018.75
2018-11-23T11:45:01.533Z,1018.74
2018-11-23T11:46:01.437Z,1018.76
2018-11-23T11:47:01.412Z,1018.75
2018-11-23T11:48:02.286Z,1018.73
2018-11-23T11:49:01.401Z,1018.68
2018-11-23T11:50:02.285Z,1018.69
2018-11-23T11:51:01.279Z,1018.72
2018-11-23T11:52:01.311Z,1018.70
2018-11-23T11:53:01.216Z,1018.75
2018-11-23T11:54:01.198Z,1018.75
2018-11-23T11:55:01.155Z,1018.71
2018-11-23T11:56:01.131Z,1018.71
2018-11-23T11:57:01.148Z,1018.69
2018-11-23T11:58:01.053Z,1018.68
2018-11-23T11:59:01.023Z,1018.69
2018-11-23T12:00:01.040Z,1018.71
2018-11-23T12:01:00.975Z,1018.68
2018-11-23T12:02:00.927Z,1018.62
2018-11-23T12:03:00.887Z,1018.58
2018-11-23T12:04:00.868Z,1018.58
2018-11-23T12:05:00.906Z,1018.60
2018-11-23T12:06:00.794Z,1018.55